sensor_id;sensor_type;location;lat;lon;timestamp;temperature;humidity
3156;DHT22;1588;50.892;7.082;2023-05-23T00:02:36;16.20;99.90
3156;DHT22;1588;50.892;7.082;2023-05-23T00:07:40;16.20;99.90
3156;DHT22;1588;50.892;7.082;2023-05-23T00:12:42;16.10;99.90
3156;DHT22;1588;50.892;7.082;2023-05-23T00:17:48;16.00;99.90
3156;DHT22;1588;50.892;7.082;2023-05-23T00:22:51;16.00;99.90
3156;DHT22;1588;50.892;7.082;2023-05-23T00:27:54;15.90;99.90
3156;DHT22;1588;50.892;7.082;2023-05-23T00:33:00;15.80;99.90
3156;DHT22;1588;50.892;7.082;2023-05-23T00:38:06;15.70;99.90
3156;DHT22;1588;50.892;7.082;2023-05-23T00:43:08;15.70;99.90
3156;DHT22;1588;50.892;7.082;2023-05-23T00:48:11;15.60;99.90
3156;DHT22;1588;50.892;7.082;2023-05-23T00:53:17;15.50;99.90
3156;DHT22;1588;50.892;7.082;2023-05-23T00:58:20;15.40;99.90
3156;DHT22;1588;50.892;7.082;2023-05-23T01:03:23;15.30;99.90
3156;DHT22;1588;50.892;7.082;2023-05-23T01:08:35;15.30;99.90
3156;DHT22;1588;50.892;7.082;2023-05-23T01:13:43;15.30;99.90
3156;DHT22;1588;50.892;7.082;2023-05-23T01:18:54;15.40;99.90
3156;DHT22;1588;50.892;7.082;2023-05-23T01:24:13;15.50;99.90
3156;DHT22;1588;50.892;7.082;2023-05-23T01:29:23;15.60;99.90
3156;DHT22;1588;50.892;7.082;2023-05-23T01:34:29;15.60;99.90
3156;DHT22;1588;50.892;7.082;2023-05-23T01:39:35;15.60;99.90
3156;DHT22;1588;50.892;7.082;2023-05-23T01:44:39;15.70;99.90
3156;DHT22;1588;50.892;7.082;2023-05-23T01:49:43;15.70;99.90
3156;DHT22;1588;50.892;7.082;2023-05-23T01:54:50;15.80;99.90
3156;DHT22;1588;50.892;7.082;2023-05-23T01:59:54;15.80;99.90
3156;DHT22;1588;50.892;7.082;2023-05-23T02:04:59;15.80;99.90
3156;DHT22;1588;50.892;7.082;2023-05-23T02:10:03;15.70;99.90
3156;DHT22;1588;50.892;7.082;2023-05-23T02:15:08;15.60;99.90
3156;DHT22;1588;50.892;7.082;2023-05-23T02:20:13;15.60;99.90
3156;DHT22;1588;50.892;7.082;2023-05-23T02:25:15;15.60;99.90
3156;DHT22;1588;50.892;7.082;2023-05-23T02:30:20;15.50;99.90
3156;DHT22;1588;50.892;7.082;2023-05-23T02:35:23;15.50;99.90
3156;DHT22;1588;50.892;7.082;2023-05-23T02:40:25;15.50;99.90
3156;DHT22;1588;50.892;7.082;2023-05-23T02:45:29;15.50;99.90
3156;DHT22;1588;50.892;7.082;2023-05-23T02:50:31;15.50;99.90
3156;DHT22;1588;50.892;7.082;2023-05-23T02:55:33;15.50;99.90
3156;DHT22;1588;50.892;7.082;2023-05-23T03:00:38;15.50;99.90
3156;DHT22;1588;50.892;7.082;2023-05-23T03:05:40;15.60;99.90
3156;DHT22;1588;50.892;7.082;2023-05-23T03:10:42;15.60;99.90
3156;DHT22;1588;50.892;7.082;2023-05-23T03:15:46;15.50;99.90
3156;DHT22;1588;50.892;7.082;2023-05-23T03:20:48;15.50;99.90
3156;DHT22;1588;50.892;7.082;2023-05-23T03:25:51;15.50;99.90
3156;DHT22;1588;50.892;7.082;2023-05-23T03:30:54;15.50;99.90
3156;DHT22;1588;50.892;7.082;2023-05-23T03:35:57;15.40;99.90
3156;DHT22;1588;50.892;7.082;2023-05-23T03:41:02;15.40;99.90
3156;DHT22;1588;50.892;7.082;2023-05-23T03:46:06;15.40;99.90
3156;DHT22;1588;50.892;7.082;2023-05-23T03:51:08;15.40;99.90
3156;DHT22;1588;50.892;7.082;2023-05-23T03:56:17;15.30;99.90
3156;DHT22;1588;50.892;7.082;2023-05-23T04:01:23;15.20;99.90
3156;DHT22;1588;50.892;7.082;2023-05-23T04:06:26;15.10;99.90
3156;DHT22;1588;50.892;7.082;2023-05-23T04:11:31;15.00;99.90
3156;DHT22;1588;50.892;7.082;2023-05-23T04:16:36;15.00;99.90
3156;DHT22;1588;50.892;7.082;2023-05-23T04:21:41;15.00;99.90
3156;DHT22;1588;50.892;7.082;2023-05-23T04:26:44;14.90;99.90
3156;DHT22;1588;50.892;7.082;2023-05-23T04:31:47;15.00;99.90
3156;DHT22;1588;50.892;7.082;2023-05-23T04:36:50;15.00;99.90
3156;DHT22;1588;50.892;7.082;2023-05-23T04:41:53;15.00;99.90
3156;DHT22;1588;50.892;7.082;2023-05-23T04:47:00;15.00;99.90
3156;DHT22;1588;50.892;7.082;2023-05-23T04:52:03;15.00;99.90
3156;DHT22;1588;50.892;7.082;2023-05-23T04:57:05;15.00;99.90
3156;DHT22;1588;50.892;7.082;2023-05-23T05:02:09;15.10;99.90
3156;DHT22;1588;50.892;7.082;2023-05-23T05:07:14;15.10;99.90
3156;DHT22;1588;50.892;7.082;2023-05-23T05:12:17;15.10;99.90
3156;DHT22;1588;50.892;7.082;2023-05-23T05:17:24;15.10;99.90
3156;DHT22;1588;50.892;7.082;2023-05-23T05:22:26;15.00;99.90
3156;DHT22;1588;50.892;7.082;2023-05-23T05:27:29;14.90;99.90
3156;DHT22;1588;50.892;7.082;2023-05-23T05:32:33;14.80;99.90
3156;DHT22;1588;50.892;7.082;2023-05-23T05:37:35;14.80;99.90
3156;DHT22;1588;50.892;7.082;2023-05-23T05:42:38;14.80;99.90
3156;DHT22;1588;50.892;7.082;2023-05-23T05:47:42;14.80;99.90
3156;DHT22;1588;50.892;7.082;2023-05-23T05:52:44;14.90;99.90
3156;DHT22;1588;50.892;7.082;2023-05-23T05:57:47;14.90;99.90
3156;DHT22;1588;50.892;7.082;2023-05-23T06:02:51;15.00;99.90
3156;DHT22;1588;50.892;7.082;2023-05-23T06:07:57;15.00;99.90
3156;DHT22;1588;50.892;7.082;2023-05-23T06:13:00;15.00;99.90
3156;DHT22;1588;50.892;7.082;2023-05-23T06:18:04;14.90;99.90
3156;DHT22;1588;50.892;7.082;2023-05-23T06:23:07;14.90;99.90
3156;DHT22;1588;50.892;7.082;2023-05-23T06:28:09;14.90;99.90
3156;DHT22;1588;50.892;7.082;2023-05-23T06:33:13;14.90;99.90
3156;DHT22;1588;50.892;7.082;2023-05-23T06:38:16;14.90;99.90
3156;DHT22;1588;50.892;7.082;2023-05-23T06:43:19;14.90;99.90
3156;DHT22;1588;50.892;7.082;2023-05-23T06:48:23;15.00;99.90
3156;DHT22;1588;50.892;7.082;2023-05-23T06:53:27;15.00;99.90
3156;DHT22;1588;50.892;7.082;2023-05-23T06:58:30;15.00;99.90
3156;DHT22;1588;50.892;7.082;2023-05-23T07:03:34;14.90;99.90
3156;DHT22;1588;50.892;7.082;2023-05-23T07:08:38;14.90;99.90
3156;DHT22;1588;50.892;7.082;2023-05-23T07:13:40;14.90;99.90
3156;DHT22;1588;50.892;7.082;2023-05-23T07:18:44;14.90;99.90
3156;DHT22;1588;50.892;7.082;2023-05-23T07:23:47;14.90;99.90
3156;DHT22;1588;50.892;7.082;2023-05-23T07:28:52;15.00;99.90
3156;DHT22;1588;50.892;7.082;2023-05-23T07:33:56;15.10;99.90
3156;DHT22;1588;50.892;7.082;2023-05-23T07:38:59;15.20;99.90
3156;DHT22;1588;50.892;7.082;2023-05-23T07:44:01;15.30;99.90
3156;DHT22;1588;50.892;7.082;2023-05-23T07:49:05;15.40;99.90
3156;DHT22;1588;50.892;7.082;2023-05-23T07:54:07;15.40;99.90
3156;DHT22;1588;50.892;7.082;2023-05-23T07:59:10;15.40;99.90
3156;DHT22;1588;50.892;7.082;2023-05-23T08:04:14;15.40;99.90
3156;DHT22;1588;50.892;7.082;2023-05-23T08:09:17;15.50;99.90
3156;DHT22;1588;50.892;7.082;2023-05-23T08:14:19;15.50;99.90
3156;DHT22;1588;50.892;7.082;2023-05-23T08:19:24;15.50;99.90
3156;DHT22;1588;50.892;7.082;2023-05-23T08:24:27;15.40;99.90
3156;DHT22;1588;50.892;7.082;2023-05-23T08:29:30;15.40;99.90
3156;DHT22;1588;50.892;7.082;2023-05-23T08:34:34;15.50;99.90
3156;DHT22;1588;50.892;7.082;2023-05-23T08:39:36;15.50;99.90
3156;DHT22;1588;50.892;7.082;2023-05-23T08:44:39;15.50;99.90
3156;DHT22;1588;50.892;7.082;2023-05-23T08:49:46;15.50;99.90
3156;DHT22;1588;50.892;7.082;2023-05-23T08:54:49;15.50;99.90
3156;DHT22;1588;50.892;7.082;2023-05-23T08:59:51;15.50;99.90
3156;DHT22;1588;50.892;7.082;2023-05-23T09:04:56;15.40;99.90
3156;DHT22;1588;50.892;7.082;2023-05-23T09:10:01;15.40;99.90
3156;DHT22;1588;50.892;7.082;2023-05-23T09:15:05;15.30;99.90
3156;DHT22;1588;50.892;7.082;2023-05-23T09:20:12;15.20;99.90
3156;DHT22;1588;50.892;7.082;2023-05-23T09:25:15;15.30;99.90
3156;DHT22;1588;50.892;7.082;2023-05-23T09:30:17;15.30;99.90
3156;DHT22;1588;50.892;7.082;2023-05-23T09:35:22;15.30;99.90
3156;DHT22;1588;50.892;7.082;2023-05-23T09:40:28;15.40;99.90
3156;DHT22;1588;50.892;7.082;2023-05-23T09:45:32;15.50;99.90
3156;DHT22;1588;50.892;7.082;2023-05-23T09:50:36;15.70;99.90
3156;DHT22;1588;50.892;7.082;2023-05-23T09:55:39;15.90;99.90
3156;DHT22;1588;50.892;7.082;2023-05-23T10:00:43;15.90;99.90
3156;DHT22;1588;50.892;7.082;2023-05-23T10:05:49;16.10;99.90
3156;DHT22;1588;50.892;7.082;2023-05-23T10:16:41;15.80;99.90
3156;DHT22;1588;50.892;7.082;2023-05-23T10:21:57;15.60;99.90
3156;DHT22;1588;50.892;7.082;2023-05-23T10:27:04;15.50;99.90
3156;DHT22;1588;50.892;7.082;2023-05-23T10:32:07;15.50;99.90
3156;DHT22;1588;50.892;7.082;2023-05-23T10:37:18;15.50;99.90
3156;DHT22;1588;50.892;7.082;2023-05-23T10:42:29;15.40;99.90
3156;DHT22;1588;50.892;7.082;2023-05-23T10:47:33;15.70;99.90
3156;DHT22;1588;50.892;7.082;2023-05-23T10:52:40;16.60;99.90
3156;DHT22;1588;50.892;7.082;2023-05-23T10:57:43;17.60;99.90
3156;DHT22;1588;50.892;7.082;2023-05-23T11:02:52;17.80;99.90
3156;DHT22;1588;50.892;7.082;2023-05-23T11:08:10;17.40;99.90
3156;DHT22;1588;50.892;7.082;2023-05-23T11:13:13;17.00;99.90
3156;DHT22;1588;50.892;7.082;2023-05-23T11:18:25;16.20;99.90
3156;DHT22;1588;50.892;7.082;2023-05-23T11:23:40;16.00;99.90
3156;DHT22;1588;50.892;7.082;2023-05-23T11:28:54;16.10;99.90
3156;DHT22;1588;50.892;7.082;2023-05-23T11:34:00;16.60;99.90
3156;DHT22;1588;50.892;7.082;2023-05-23T11:39:04;16.80;99.90
3156;DHT22;1588;50.892;7.082;2023-05-23T11:44:12;16.90;99.90
3156;DHT22;1588;50.892;7.082;2023-05-23T11:49:16;16.70;99.90
3156;DHT22;1588;50.892;7.082;2023-05-23T11:54:24;16.40;99.90
3156;DHT22;1588;50.892;7.082;2023-05-23T11:59:27;16.20;99.90
3156;DHT22;1588;50.892;7.082;2023-05-23T12:04:29;16.40;99.90
3156;DHT22;1588;50.892;7.082;2023-05-23T12:09:40;16.80;99.90
3156;DHT22;1588;50.892;7.082;2023-05-23T12:14:43;16.90;99.90
3156;DHT22;1588;50.892;7.082;2023-05-23T12:19:48;17.30;99.90
3156;DHT22;1588;50.892;7.082;2023-05-23T12:24:55;17.30;99.90
3156;DHT22;1588;50.892;7.082;2023-05-23T12:30:05;17.40;99.90
3156;DHT22;1588;50.892;7.082;2023-05-23T12:35:10;17.60;99.90
3156;DHT22;1588;50.892;7.082;2023-05-23T12:40:15;17.50;99.90
3156;DHT22;1588;50.892;7.082;2023-05-23T12:45:18;17.10;99.90
3156;DHT22;1588;50.892;7.082;2023-05-23T12:50:21;16.80;99.90
3156;DHT22;1588;50.892;7.082;2023-05-23T12:55:25;16.50;99.90
3156;DHT22;1588;50.892;7.082;2023-05-23T13:00:27;16.40;99.90
3156;DHT22;1588;50.892;7.082;2023-05-23T13:05:30;16.40;99.90
3156;DHT22;1588;50.892;7.082;2023-05-23T13:10:34;16.40;99.90
3156;DHT22;1588;50.892;7.082;2023-05-23T13:15:37;16.50;99.90
3156;DHT22;1588;50.892;7.082;2023-05-23T13:20:39;16.70;99.90
3156;DHT22;1588;50.892;7.082;2023-05-23T13:25:43;16.80;99.90
3156;DHT22;1588;50.892;7.082;2023-05-23T13:30:46;16.90;99.90
3156;DHT22;1588;50.892;7.082;2023-05-23T13:35:49;16.90;99.90
3156;DHT22;1588;50.892;7.082;2023-05-23T13:40:54;17.20;99.90
3156;DHT22;1588;50.892;7.082;2023-05-23T13:45:57;17.10;99.90
3156;DHT22;1588;50.892;7.082;2023-05-23T13:51:01;17.70;99.90
3156;DHT22;1588;50.892;7.082;2023-05-23T13:56:05;18.40;99.90
3156;DHT22;1588;50.892;7.082;2023-05-23T14:01:08;18.60;99.90
3156;DHT22;1588;50.892;7.082;2023-05-23T14:06:11;18.30;99.90
3156;DHT22;1588;50.892;7.082;2023-05-23T14:11:15;17.70;99.90
3156;DHT22;1588;50.892;7.082;2023-05-23T14:16:17;17.50;99.90
3156;DHT22;1588;50.892;7.082;2023-05-23T14:21:20;17.90;99.90
3156;DHT22;1588;50.892;7.082;2023-05-23T14:26:28;18.30;99.90
3156;DHT22;1588;50.892;7.082;2023-05-23T14:31:31;18.10;99.90
3156;DHT22;1588;50.892;7.082;2023-05-23T14:36:51;18.40;99.90
3156;DHT22;1588;50.892;7.082;2023-05-23T14:41:56;18.30;99.90
3156;DHT22;1588;50.892;7.082;2023-05-23T14:46:58;18.40;99.90
3156;DHT22;1588;50.892;7.082;2023-05-23T14:52:01;18.10;99.90
3156;DHT22;1588;50.892;7.082;2023-05-23T14:57:05;18.20;99.90
3156;DHT22;1588;50.892;7.082;2023-05-23T15:02:08;18.80;99.90
3156;DHT22;1588;50.892;7.082;2023-05-23T15:07:12;19.40;99.90
3156;DHT22;1588;50.892;7.082;2023-05-23T15:12:16;19.00;99.90
3156;DHT22;1588;50.892;7.082;2023-05-23T15:17:19;18.60;99.90
3156;DHT22;1588;50.892;7.082;2023-05-23T15:22:22;18.40;99.90
3156;DHT22;1588;50.892;7.082;2023-05-23T15:27:26;18.40;99.90
3156;DHT22;1588;50.892;7.082;2023-05-23T15:32:28;18.70;99.90
3156;DHT22;1588;50.892;7.082;2023-05-23T15:37:31;18.90;99.90
3156;DHT22;1588;50.892;7.082;2023-05-23T15:42:35;18.70;99.90
3156;DHT22;1588;50.892;7.082;2023-05-23T15:47:40;18.70;99.90
3156;DHT22;1588;50.892;7.082;2023-05-23T15:52:43;18.60;99.90
3156;DHT22;1588;50.892;7.082;2023-05-23T15:57:48;18.80;99.90
3156;DHT22;1588;50.892;7.082;2023-05-23T16:02:51;18.30;99.90
3156;DHT22;1588;50.892;7.082;2023-05-23T16:07:53;17.80;99.90
3156;DHT22;1588;50.892;7.082;2023-05-23T16:13:00;17.70;99.90
3156;DHT22;1588;50.892;7.082;2023-05-23T16:18:03;17.70;99.90
3156;DHT22;1588;50.892;7.082;2023-05-23T16:23:05;18.40;99.90
3156;DHT22;1588;50.892;7.082;2023-05-23T16:28:10;18.80;99.90
3156;DHT22;1588;50.892;7.082;2023-05-23T16:33:12;18.40;99.90
3156;DHT22;1588;50.892;7.082;2023-05-23T16:38:15;18.00;99.90
3156;DHT22;1588;50.892;7.082;2023-05-23T16:43:22;17.50;99.90
3156;DHT22;1588;50.892;7.082;2023-05-23T16:48:27;17.70;99.90
3156;DHT22;1588;50.892;7.082;2023-05-23T16:53:33;18.10;99.90
3156;DHT22;1588;50.892;7.082;2023-05-23T16:58:36;18.10;99.90
3156;DHT22;1588;50.892;7.082;2023-05-23T17:03:39;17.60;99.90
3156;DHT22;1588;50.892;7.082;2023-05-23T17:08:41;17.30;99.90
3156;DHT22;1588;50.892;7.082;2023-05-23T17:13:45;17.10;99.90
3156;DHT22;1588;50.892;7.082;2023-05-23T17:18:49;17.00;99.90
3156;DHT22;1588;50.892;7.082;2023-05-23T17:23:52;16.90;99.90
3156;DHT22;1588;50.892;7.082;2023-05-23T17:28:55;17.00;99.90
3156;DHT22;1588;50.892;7.082;2023-05-23T17:34:01;16.70;99.90
3156;DHT22;1588;50.892;7.082;2023-05-23T17:39:03;16.60;99.90
3156;DHT22;1588;50.892;7.082;2023-05-23T17:44:08;16.50;99.90
3156;DHT22;1588;50.892;7.082;2023-05-23T17:49:12;16.40;99.90
3156;DHT22;1588;50.892;7.082;2023-05-23T17:54:15;16.30;99.90
3156;DHT22;1588;50.892;7.082;2023-05-23T17:59:19;16.20;99.90
3156;DHT22;1588;50.892;7.082;2023-05-23T18:04:21;16.30;99.90
3156;DHT22;1588;50.892;7.082;2023-05-23T18:09:27;16.40;99.90
3156;DHT22;1588;50.892;7.082;2023-05-23T18:14:31;16.20;99.90
3156;DHT22;1588;50.892;7.082;2023-05-23T18:19:34;16.00;99.90
3156;DHT22;1588;50.892;7.082;2023-05-23T18:24:36;15.80;99.90
3156;DHT22;1588;50.892;7.082;2023-05-23T18:29:43;15.70;99.90
3156;DHT22;1588;50.892;7.082;2023-05-23T18:34:46;15.40;99.90
3156;DHT22;1588;50.892;7.082;2023-05-23T18:39:49;15.30;99.90
3156;DHT22;1588;50.892;7.082;2023-05-23T18:44:52;15.20;99.90
3156;DHT22;1588;50.892;7.082;2023-05-23T18:49:55;15.10;99.90
3156;DHT22;1588;50.892;7.082;2023-05-23T18:54:58;14.90;99.90
3156;DHT22;1588;50.892;7.082;2023-05-23T19:00:03;14.90;99.90
3156;DHT22;1588;50.892;7.082;2023-05-23T19:05:07;14.70;99.90
3156;DHT22;1588;50.892;7.082;2023-05-23T19:10:10;14.60;99.90
3156;DHT22;1588;50.892;7.082;2023-05-23T19:15:20;14.50;99.90
3156;DHT22;1588;50.892;7.082;2023-05-23T19:20:22;14.40;99.90
3156;DHT22;1588;50.892;7.082;2023-05-23T19:25:28;14.30;99.90
3156;DHT22;1588;50.892;7.082;2023-05-23T19:30:33;14.20;99.90
3156;DHT22;1588;50.892;7.082;2023-05-23T19:35:36;14.10;99.90
3156;DHT22;1588;50.892;7.082;2023-05-23T19:40:39;14.00;99.90
3156;DHT22;1588;50.892;7.082;2023-05-23T19:45:42;13.90;99.90
3156;DHT22;1588;50.892;7.082;2023-05-23T19:50:45;13.80;99.90
3156;DHT22;1588;50.892;7.082;2023-05-23T19:55:47;13.70;99.90
3156;DHT22;1588;50.892;7.082;2023-05-23T20:00:52;13.60;99.90
3156;DHT22;1588;50.892;7.082;2023-05-23T20:05:54;13.60;99.90
3156;DHT22;1588;50.892;7.082;2023-05-23T20:10:57;13.40;99.90
3156;DHT22;1588;50.892;7.082;2023-05-23T20:16:01;13.30;99.90
3156;DHT22;1588;50.892;7.082;2023-05-23T20:21:03;13.20;99.90
3156;DHT22;1588;50.892;7.082;2023-05-23T20:26:06;13.10;99.90
3156;DHT22;1588;50.892;7.082;2023-05-23T20:31:10;13.00;99.90
3156;DHT22;1588;50.892;7.082;2023-05-23T20:36:12;12.90;99.90
3156;DHT22;1588;50.892;7.082;2023-05-23T20:41:15;12.90;99.90
3156;DHT22;1588;50.892;7.082;2023-05-23T20:46:19;12.80;99.90
3156;DHT22;1588;50.892;7.082;2023-05-23T20:51:21;12.70;99.90
3156;DHT22;1588;50.892;7.082;2023-05-23T20:56:23;12.60;99.90
3156;DHT22;1588;50.892;7.082;2023-05-23T21:01:28;12.50;99.90
3156;DHT22;1588;50.892;7.082;2023-05-23T21:06:31;12.40;99.90
3156;DHT22;1588;50.892;7.082;2023-05-23T21:11:34;12.30;99.90
3156;DHT22;1588;50.892;7.082;2023-05-23T21:16:40;12.20;99.90
3156;DHT22;1588;50.892;7.082;2023-05-23T21:21:43;12.20;99.90
3156;DHT22;1588;50.892;7.082;2023-05-23T21:26:45;12.20;99.90
3156;DHT22;1588;50.892;7.082;2023-05-23T21:31:49;12.10;99.90
3156;DHT22;1588;50.892;7.082;2023-05-23T21:36:52;12.00;99.90
3156;DHT22;1588;50.892;7.082;2023-05-23T21:41:55;11.90;99.90
3156;DHT22;1588;50.892;7.082;2023-05-23T21:46:59;11.80;99.90
3156;DHT22;1588;50.892;7.082;2023-05-23T21:52:03;11.80;99.90
3156;DHT22;1588;50.892;7.082;2023-05-23T21:57:06;11.70;99.90
3156;DHT22;1588;50.892;7.082;2023-05-23T22:02:10;11.70;99.90
3156;DHT22;1588;50.892;7.082;2023-05-23T22:07:12;11.50;99.90
3156;DHT22;1588;50.892;7.082;2023-05-23T22:12:16;11.50;99.90
3156;DHT22;1588;50.892;7.082;2023-05-23T22:17:20;11.30;99.90
3156;DHT22;1588;50.892;7.082;2023-05-23T22:22:22;11.30;99.90
3156;DHT22;1588;50.892;7.082;2023-05-23T22:27:25;11.20;99.90
3156;DHT22;1588;50.892;7.082;2023-05-23T22:32:31;11.10;99.90
3156;DHT22;1588;50.892;7.082;2023-05-23T22:37:34;11.00;99.90
3156;DHT22;1588;50.892;7.082;2023-05-23T22:42:36;10.90;99.90
3156;DHT22;1588;50.892;7.082;2023-05-23T22:47:41;10.80;99.90
3156;DHT22;1588;50.892;7.082;2023-05-23T22:52:44;10.60;99.90
3156;DHT22;1588;50.892;7.082;2023-05-23T22:57:48;10.50;99.90
3156;DHT22;1588;50.892;7.082;2023-05-23T23:02:54;10.30;99.90
3156;DHT22;1588;50.892;7.082;2023-05-23T23:07:56;10.30;99.90
3156;DHT22;1588;50.892;7.082;2023-05-23T23:12:58;10.20;99.90
3156;DHT22;1588;50.892;7.082;2023-05-23T23:18:02;10.20;99.90
3156;DHT22;1588;50.892;7.082;2023-05-23T23:23:05;10.20;99.90
3156;DHT22;1588;50.892;7.082;2023-05-23T23:28:08;10.20;99.90
3156;DHT22;1588;50.892;7.082;2023-05-23T23:33:12;9.90;99.90
3156;DHT22;1588;50.892;7.082;2023-05-23T23:38:14;9.80;99.90
3156;DHT22;1588;50.892;7.082;2023-05-23T23:43:17;9.60;99.90
3156;DHT22;1588;50.892;7.082;2023-05-23T23:48:21;9.40;99.90
3156;DHT22;1588;50.892;7.082;2023-05-23T23:53:23;9.20;99.90
3156;DHT22;1588;50.892;7.082;2023-05-23T23:58:25;9.10;99.90
